sensor_id;sensor_type;location;lat;lon;timestamp;pressure;altitude;pressure_sealevel;temperature
49557;BMP280;35462;45.048;7.666;2023-01-16T00:01:10;97885.47;;;8.88
49557;BMP280;35462;45.048;7.666;2023-01-16T00:16:26;97863.09;;;8.77
49557;BMP280;35462;45.048;7.666;2023-01-16T00:31:42;97854.78;;;8.40
49557;BMP280;35462;45.048;7.666;2023-01-16T00:46:58;97831.66;;;8.28
49557;BMP280;35462;45.048;7.666;2023-01-16T01:02:14;97800.94;;;8.18
49557;BMP280;35462;45.048;7.666;2023-01-16T01:17:30;97781.41;;;7.96
49557;BMP280;35462;45.048;7.666;2023-01-16T01:32:47;97769.97;;;8.02
49557;BMP280;35462;45.048;7.666;2023-01-16T02:03:34;97726.19;;;7.89
49557;BMP280;35462;45.048;7.666;2023-01-16T02:18:53;97719.44;;;7.88
49557;BMP280;35462;45.048;7.666;2023-01-16T02:50:22;97678.59;;;7.57
49557;BMP280;35462;45.048;7.666;2023-01-16T03:05:44;97636.69;;;7.24
49557;BMP280;35462;45.048;7.666;2023-01-16T03:52:08;97586.47;;;7.15
49557;BMP280;35462;45.048;7.666;2023-01-16T04:07:31;97556.94;;;7.07
49557;BMP280;35462;45.048;7.666;2023-01-16T04:22:50;97548.22;;;6.87
49557;BMP280;35462;45.048;7.666;2023-01-16T04:38:14;97516.06;;;6.80
49557;BMP280;35462;45.048;7.666;2023-01-16T04:53:50;97528.25;;;6.70
49557;BMP280;35462;45.048;7.666;2023-01-16T05:26:07;97490.81;;;6.40
49557;BMP280;35462;45.048;7.666;2023-01-16T05:57:33;97451.59;;;6.26
49557;BMP280;35462;45.048;7.666;2023-01-16T06:12:49;97424.00;;;6.37
49557;BMP280;35462;45.048;7.666;2023-01-16T06:28:08;97411.47;;;6.25
49557;BMP280;35462;45.048;7.666;2023-01-16T06:43:25;97408.03;;;6.28
49557;BMP280;35462;45.048;7.666;2023-01-16T06:58:42;97360.00;;;6.28
49557;BMP280;35462;45.048;7.666;2023-01-16T07:13:58;97364.22;;;6.22
49557;BMP280;35462;45.048;7.666;2023-01-16T07:29:30;97351.22;;;6.34
49557;BMP280;35462;45.048;7.666;2023-01-16T07:44:46;97329.06;;;6.35
49557;BMP280;35462;45.048;7.666;2023-01-16T08:00:04;97294.22;;;5.47
49557;BMP280;35462;45.048;7.666;2023-01-16T08:15:27;97267.44;;;5.78
49557;BMP280;35462;45.048;7.666;2023-01-16T08:30:43;97234.19;;;6.11
49557;BMP280;35462;45.048;7.666;2023-01-16T08:45:59;97241.41;;;6.45
49557;BMP280;35462;45.048;7.666;2023-01-16T09:01:30;97245.09;;;6.67
49557;BMP280;35462;45.048;7.666;2023-01-16T09:16:46;97212.06;;;6.66
49557;BMP280;35462;45.048;7.666;2023-01-16T09:32:02;97186.75;;;6.88
49557;BMP280;35462;45.048;7.666;2023-01-16T09:47:24;97155.53;;;7.35
49557;BMP280;35462;45.048;7.666;2023-01-16T10:02:41;97158.56;;;7.49
49557;BMP280;35462;45.048;7.666;2023-01-16T10:18:06;97138.19;;;7.37
49557;BMP280;35462;45.048;7.666;2023-01-16T10:33:34;97116.81;;;7.35
49557;BMP280;35462;45.048;7.666;2023-01-16T10:48:50;97084.56;;;7.59
49557;BMP280;35462;45.048;7.666;2023-01-16T11:04:32;97045.50;;;7.83
49557;BMP280;35462;45.048;7.666;2023-01-16T11:19:49;96990.69;;;8.15
49557;BMP280;35462;45.048;7.666;2023-01-16T11:35:12;96981.81;;;8.22
49557;BMP280;35462;45.048;7.666;2023-01-16T11:50:32;96937.19;;;8.40
49557;BMP280;35462;45.048;7.666;2023-01-16T12:36:46;96845.47;;;8.35
49557;BMP280;35462;45.048;7.666;2023-01-16T13:07:35;96855.00;;;8.62
49557;BMP280;35462;45.048;7.666;2023-01-16T13:22:58;96821.28;;;8.57
49557;BMP280;35462;45.048;7.666;2023-01-16T13:54:02;96781.81;;;8.45
49557;BMP280;35462;45.048;7.666;2023-01-16T14:09:21;96784.31;;;8.49
49557;BMP280;35462;45.048;7.666;2023-01-16T14:24:41;96731.09;;;8.71
49557;BMP280;35462;45.048;7.666;2023-01-16T14:40:00;96730.75;;;8.60
49557;BMP280;35462;45.048;7.666;2023-01-16T14:55:17;96729.03;;;8.66
49557;BMP280;35462;45.048;7.666;2023-01-16T15:10:38;96717.59;;;8.69
49557;BMP280;35462;45.048;7.666;2023-01-16T15:41:20;96708.53;;;8.79
49557;BMP280;35462;45.048;7.666;2023-01-16T15:56:57;96696.50;;;8.78
49557;BMP280;35462;45.048;7.666;2023-01-16T16:12:13;96708.94;;;8.60
49557;BMP280;35462;45.048;7.666;2023-01-16T16:27:30;96717.31;;;8.67
49557;BMP280;35462;45.048;7.666;2023-01-16T16:42:49;96701.78;;;8.69
49557;BMP280;35462;45.048;7.666;2023-01-16T16:58:15;96717.88;;;8.62
49557;BMP280;35462;45.048;7.666;2023-01-16T17:13:32;96699.13;;;8.60
49557;BMP280;35462;45.048;7.666;2023-01-16T17:28:48;96715.38;;;8.68
49557;BMP280;35462;45.048;7.666;2023-01-16T17:44:07;96710.34;;;8.82
49557;BMP280;35462;45.048;7.666;2023-01-16T17:59:39;96717.22;;;8.89
49557;BMP280;35462;45.048;7.666;2023-01-16T18:14:55;96713.81;;;8.79
49557;BMP280;35462;45.048;7.666;2023-01-16T18:30:26;96699.94;;;8.49
49557;BMP280;35462;45.048;7.666;2023-01-16T18:45:42;96693.03;;;8.33
49557;BMP280;35462;45.048;7.666;2023-01-16T19:01:13;96677.88;;;8.25
49557;BMP280;35462;45.048;7.666;2023-01-16T19:16:44;96684.09;;;8.09
49557;BMP280;35462;45.048;7.666;2023-01-16T19:32:01;96694.84;;;7.93
49557;BMP280;35462;45.048;7.666;2023-01-16T19:47:21;96676.78;;;7.83
49557;BMP280;35462;45.048;7.666;2023-01-16T20:02:39;96698.16;;;7.85
49557;BMP280;35462;45.048;7.666;2023-01-16T20:17:57;96666.09;;;7.86
49557;BMP280;35462;45.048;7.666;2023-01-16T20:33:14;96698.16;;;7.85
49557;BMP280;35462;45.048;7.666;2023-01-16T20:48:31;96680.81;;;7.75
49557;BMP280;35462;45.048;7.666;2023-01-16T21:03:47;96674.59;;;7.81
49557;BMP280;35462;45.048;7.666;2023-01-16T21:19:08;96648.31;;;7.69
49557;BMP280;35462;45.048;7.666;2023-01-16T21:34:49;96643.50;;;7.76
49557;BMP280;35462;45.048;7.666;2023-01-16T21:50:08;96652.09;;;7.68
49557;BMP280;35462;45.048;7.666;2023-01-16T22:05:26;96640.31;;;7.51
49557;BMP280;35462;45.048;7.666;2023-01-16T22:20:44;96643.41;;;7.37
49557;BMP280;35462;45.048;7.666;2023-01-16T22:36:08;96619.63;;;7.41
49557;BMP280;35462;45.048;7.666;2023-01-16T22:51:26;96617.41;;;7.39
49557;BMP280;35462;45.048;7.666;2023-01-16T23:06:42;96613.00;;;7.36
49557;BMP280;35462;45.048;7.666;2023-01-16T23:21:58;96599.03;;;7.27
49557;BMP280;35462;45.048;7.666;2023-01-16T23:37:14;96591.72;;;7.09
49557;BMP280;35462;45.048;7.666;2023-01-16T23:52:30;96602.09;;;6.91
